createdAt,value
2023-01-18T00:01:48.563Z,2.78
2023-01-18T00:04:51.884Z,2.67
2023-01-18T00:07:55.332Z,2.10
2023-01-18T00:11:05.584Z,2.38
2023-01-18T00:14:08.740Z,2.80
2023-01-18T00:17:11.923Z,2.50
2023-01-18T00:20:16.246Z,2.50
2023-01-18T00:23:22.362Z,2.60
2023-01-18T00:26:25.657Z,2.28
2023-01-18T00:29:31.552Z,2.10
2023-01-18T00:32:34.972Z,2.38
2023-01-18T00:35:38.122Z,2.30
2023-01-18T00:38:41.808Z,2.92
2023-01-18T00:42:05.013Z,2.42
2023-01-18T00:45:08.621Z,2.10
2023-01-18T00:48:14.214Z,1.75
2023-01-18T00:51:21.573Z,2.10
2023-01-18T00:54:24.789Z,1.57
2023-01-18T00:57:28.161Z,1.75
2023-01-18T01:00:32.607Z,1.55
2023-01-18T01:03:55.181Z,1.60
2023-01-18T01:06:58.402Z,1.70
2023-01-18T01:10:09.039Z,1.80
2023-01-18T01:13:31.610Z,2.00
2023-01-18T01:16:53.513Z,1.80
2023-01-18T01:20:15.830Z,1.45
2023-01-18T01:23:40.520Z,1.57
2023-01-18T01:26:43.771Z,1.48
2023-01-18T01:29:47.869Z,1.40
2023-01-18T01:32:53.858Z,1.17
2023-01-18T01:36:05.474Z,1.10
2023-01-18T01:39:11.023Z,0.90
2023-01-18T01:42:14.268Z,1.65
2023-01-18T01:45:19.633Z,1.40
2023-01-18T01:48:22.982Z,1.50
2023-01-18T01:51:26.656Z,1.70
2023-01-18T01:54:37.478Z,1.57
2023-01-18T01:57:57.821Z,1.65
2023-01-18T02:01:01.139Z,1.85
2023-01-18T02:04:04.745Z,1.92
2023-01-18T02:07:07.953Z,1.65
2023-01-18T02:10:11.518Z,1.67
2023-01-18T02:13:15.219Z,1.42
2023-01-18T02:16:27.588Z,1.30
2023-01-18T02:19:54.669Z,1.42
2023-01-18T02:23:16.497Z,1.10
2023-01-18T02:26:41.838Z,1.30
2023-01-18T02:29:45.226Z,1.50
2023-01-18T02:33:12.301Z,1.33
2023-01-18T02:36:30.605Z,1.17
2023-01-18T02:39:38.451Z,1.30
2023-01-18T02:43:02.515Z,0.90
2023-01-18T02:46:46.173Z,0.93
2023-01-18T02:49:49.412Z,1.10
2023-01-18T02:52:53.634Z,1.23
2023-01-18T02:56:05.385Z,1.15
2023-01-18T02:59:08.861Z,1.10
2023-01-18T03:02:19.225Z,1.20
2023-01-18T03:05:24.557Z,0.90
2023-01-18T03:08:36.319Z,0.98
2023-01-18T03:11:51.233Z,0.77
2023-01-18T03:15:05.044Z,1.00
2023-01-18T03:18:34.074Z,0.77
2023-01-18T03:21:47.576Z,0.90
2023-01-18T03:24:51.543Z,0.88
2023-01-18T03:28:15.440Z,1.00
2023-01-18T03:31:52.527Z,0.90
2023-01-18T03:35:00.126Z,0.77
2023-01-18T03:38:03.320Z,0.70
2023-01-18T03:41:08.773Z,0.88
2023-01-18T03:44:27.587Z,0.77
2023-01-18T03:47:31.470Z,1.07
2023-01-18T03:51:19.686Z,0.73
2023-01-18T03:54:43.170Z,0.80
2023-01-18T03:57:57.684Z,0.75
2023-01-18T04:01:04.149Z,0.70
2023-01-18T04:04:07.478Z,0.90
2023-01-18T04:07:10.694Z,0.80
2023-01-18T04:10:14.916Z,0.75
2023-01-18T04:13:18.183Z,1.13
2023-01-18T04:16:21.556Z,0.70
2023-01-18T04:19:24.992Z,0.70
2023-01-18T04:22:28.153Z,0.90
2023-01-18T04:25:31.358Z,0.90
2023-01-18T04:28:36.679Z,0.77
2023-01-18T04:31:40.082Z,0.70
2023-01-18T04:34:43.243Z,0.67
2023-01-18T04:37:52.361Z,0.50
2023-01-18T04:40:55.673Z,0.50
2023-01-18T04:43:58.904Z,0.60
2023-01-18T04:47:02.114Z,0.70
2023-01-18T04:50:06.558Z,0.70
2023-01-18T04:53:09.845Z,0.60
2023-01-18T04:56:13.078Z,0.70
2023-01-18T04:59:16.998Z,0.50
2023-01-18T05:02:20.359Z,0.50
2023-01-18T05:05:24.040Z,0.60
2023-01-18T05:08:27.389Z,0.60
2023-01-18T05:11:30.583Z,0.50
2023-01-18T05:14:33.795Z,0.40
2023-01-18T05:17:37.121Z,0.50
2023-01-18T05:20:40.393Z,0.40
2023-01-18T05:23:44.006Z,0.30
2023-01-18T05:26:49.870Z,0.30
2023-01-18T05:29:53.169Z,0.38
2023-01-18T05:32:56.840Z,0.45
2023-01-18T05:36:00.326Z,0.30
2023-01-18T05:39:03.561Z,0.50
2023-01-18T05:42:06.772Z,0.32
2023-01-18T05:45:10.713Z,0.30
2023-01-18T05:48:14.451Z,0.30
2023-01-18T05:51:17.670Z,0.20
2023-01-18T05:54:20.960Z,0.50
2023-01-18T05:57:24.125Z,0.50
2023-01-18T06:00:27.552Z,0.38
2023-01-18T06:03:30.768Z,0.50
2023-01-18T06:06:34.839Z,0.43
2023-01-18T06:09:38.141Z,0.30
2023-01-18T06:12:42.022Z,0.35
2023-01-18T06:15:49.419Z,0.52
2023-01-18T06:18:52.819Z,0.40
2023-01-18T06:21:56.155Z,0.53
2023-01-18T06:24:59.339Z,0.50
2023-01-18T06:28:08.070Z,0.70
2023-01-18T06:31:14.001Z,0.60
2023-01-18T06:34:33.889Z,0.70
2023-01-18T06:37:59.936Z,0.93
2023-01-18T06:41:40.790Z,0.80
2023-01-18T06:44:54.929Z,1.33
2023-01-18T06:47:58.271Z,1.10
2023-01-18T06:51:01.620Z,0.77
2023-01-18T06:54:05.093Z,1.30
2023-01-18T06:57:08.584Z,1.63
2023-01-18T07:00:16.657Z,1.20
2023-01-18T07:03:22.547Z,1.40
2023-01-18T07:06:26.019Z,1.27
2023-01-18T07:09:32.538Z,1.10
2023-01-18T07:12:42.869Z,1.20
2023-01-18T07:16:00.751Z,1.20
2023-01-18T07:19:04.800Z,1.00
2023-01-18T07:22:11.077Z,1.10
2023-01-18T07:28:47.504Z,1.33
2023-01-18T07:31:51.662Z,1.27
2023-01-18T07:34:55.559Z,1.92
2023-01-18T07:37:59.486Z,1.20
2023-01-18T07:41:11.703Z,1.43
2023-01-18T07:44:16.287Z,1.50
2023-01-18T07:47:21.765Z,1.00
2023-01-18T07:50:25.149Z,0.93
2023-01-18T07:53:29.489Z,0.90
2023-01-18T07:56:38.811Z,0.83
2023-01-18T07:59:42.419Z,1.20
2023-01-18T08:02:51.917Z,1.85
2023-01-18T08:06:37.390Z,1.20
2023-01-18T08:10:32.620Z,1.35
2023-01-18T08:13:39.891Z,1.37
2023-01-18T08:16:44.683Z,1.30
2023-01-18T08:19:47.979Z,1.35
2023-01-18T08:23:01.938Z,1.08
2023-01-18T08:26:06.142Z,1.60
2023-01-18T08:29:12.843Z,0.93
2023-01-18T08:32:38.225Z,0.87
2023-01-18T08:35:46.018Z,1.17
2023-01-18T08:38:51.422Z,0.90
2023-01-18T08:41:54.860Z,1.02
2023-01-18T08:44:58.207Z,1.10
2023-01-18T08:48:10.782Z,1.40
2023-01-18T08:51:14.095Z,1.00
2023-01-18T08:54:18.495Z,0.80
2023-01-18T08:57:21.761Z,0.93
2023-01-18T09:00:29.083Z,0.77
2023-01-18T09:03:35.601Z,1.30
2023-01-18T09:06:41.200Z,0.68
2023-01-18T09:09:45.255Z,0.80
2023-01-18T09:12:49.315Z,0.40
2023-01-18T09:16:23.556Z,0.50
2023-01-18T09:19:30.457Z,0.90
2023-01-18T09:22:33.766Z,0.52
2023-01-18T09:25:37.546Z,0.65
2023-01-18T09:28:45.100Z,0.80
2023-01-18T09:31:53.959Z,0.63
2023-01-18T09:34:57.471Z,0.50
2023-01-18T09:38:29.456Z,0.70
2023-01-18T09:42:02.299Z,1.40
2023-01-18T09:53:50.341Z,0.80
2023-01-18T10:09:53.767Z,0.90
2023-01-18T10:13:42.112Z,0.30
2023-01-18T10:17:13.046Z,0.50
2023-01-18T10:20:47.240Z,0.60
2023-01-18T10:24:25.182Z,0.50
2023-01-18T10:27:42.578Z,0.40
2023-01-18T10:36:45.371Z,0.75
2023-01-18T10:49:38.177Z,0.60
2023-01-18T10:52:41.458Z,0.50
2023-01-18T10:56:09.820Z,0.45
2023-01-18T10:59:37.560Z,0.60
2023-01-18T11:02:44.897Z,0.70
2023-01-18T11:05:54.446Z,0.47
2023-01-18T11:09:04.714Z,0.50
2023-01-18T11:12:38.496Z,0.40
2023-01-18T11:15:44.693Z,0.43
2023-01-18T11:19:18.154Z,0.43
2023-01-18T11:27:19.874Z,0.50
2023-01-18T11:31:26.049Z,0.73
2023-01-18T11:35:06.775Z,0.40
2023-01-18T11:47:50.126Z,0.50
2023-01-18T12:49:25.635Z,0.77
2023-01-18T12:52:54.169Z,0.60
2023-01-18T12:56:04.004Z,0.60
2023-01-18T12:59:30.456Z,0.65
2023-01-18T13:02:44.416Z,0.90
2023-01-18T13:06:02.192Z,1.20
2023-01-18T13:09:10.185Z,0.50
2023-01-18T13:12:14.352Z,0.60
2023-01-18T13:15:20.647Z,0.70
2023-01-18T13:18:30.545Z,0.70
2023-01-18T13:21:55.873Z,0.57
2023-01-18T13:25:09.040Z,0.50
2023-01-18T13:28:21.309Z,0.53
2023-01-18T13:31:31.457Z,0.40
2023-01-18T13:34:47.968Z,0.77
2023-01-18T13:37:57.995Z,0.60
2023-01-18T13:41:07.191Z,0.80
2023-01-18T13:44:37.267Z,0.70
2023-01-18T13:47:45.615Z,0.75
2023-01-18T13:50:48.907Z,1.17
2023-01-18T13:53:52.246Z,0.80
2023-01-18T13:57:04.730Z,0.67
2023-01-18T14:00:24.616Z,0.70
2023-01-18T14:03:32.715Z,0.70
2023-01-18T14:06:42.039Z,0.68
2023-01-18T14:09:49.081Z,0.65
2023-01-18T14:12:54.915Z,0.50
2023-01-18T14:16:00.301Z,1.00
2023-01-18T14:19:21.403Z,0.70
2023-01-18T14:23:05.839Z,0.80
2023-01-18T14:26:18.226Z,0.80
2023-01-18T14:29:30.230Z,0.90
2023-01-18T14:32:39.900Z,1.33
2023-01-18T14:35:54.918Z,0.90
2023-01-18T14:39:13.197Z,0.60
2023-01-18T14:42:16.849Z,1.10
2023-01-18T14:45:27.109Z,1.23
2023-01-18T14:48:34.527Z,1.52
2023-01-18T14:51:39.659Z,1.20
2023-01-18T14:54:55.422Z,0.90
2023-01-18T14:58:23.268Z,1.08
2023-01-18T15:01:33.991Z,0.90
2023-01-18T15:04:40.208Z,0.90
2023-01-18T15:07:48.119Z,1.00
2023-01-18T15:10:51.585Z,1.92
2023-01-18T15:14:01.749Z,1.90
2023-01-18T15:17:14.460Z,1.90
2023-01-18T15:20:18.292Z,1.50
2023-01-18T15:23:22.355Z,1.17
2023-01-18T15:26:46.150Z,0.77
2023-01-18T15:29:53.619Z,1.23
2023-01-18T15:33:02.128Z,1.17
2023-01-18T15:36:06.444Z,2.10
2023-01-18T15:39:13.482Z,2.80
2023-01-18T15:42:18.029Z,2.83
2023-01-18T15:45:22.574Z,3.50
2023-01-18T15:48:27.934Z,2.77
2023-01-18T15:51:50.063Z,2.20
2023-01-18T15:54:53.278Z,2.75
2023-01-18T15:58:03.357Z,2.63
2023-01-18T16:01:16.456Z,3.45
2023-01-18T16:04:22.820Z,3.27
2023-01-18T16:07:41.869Z,3.30
2023-01-18T16:10:53.669Z,2.58
2023-01-18T16:13:59.212Z,2.10
2023-01-18T16:17:13.868Z,1.60
2023-01-18T16:20:17.945Z,1.70
2023-01-18T16:23:23.123Z,1.30
2023-01-18T16:26:30.867Z,1.10
2023-01-18T16:29:47.773Z,1.10
2023-01-18T16:32:51.585Z,1.15
2023-01-18T16:35:55.131Z,1.40
2023-01-18T16:38:58.554Z,1.50
2023-01-18T16:42:02.915Z,1.80
2023-01-18T16:45:24.957Z,1.70
2023-01-18T16:48:30.754Z,1.77
2023-01-18T16:51:34.611Z,1.73
2023-01-18T16:54:38.327Z,1.60
2023-01-18T16:57:42.060Z,1.52
2023-01-18T17:01:08.086Z,1.58
2023-01-18T17:04:12.682Z,1.67
2023-01-18T17:07:16.039Z,1.80
2023-01-18T17:10:21.057Z,1.75
2023-01-18T17:13:24.729Z,2.20
2023-01-18T17:16:28.160Z,1.58
2023-01-18T17:19:31.702Z,1.80
2023-01-18T17:22:35.577Z,1.90
2023-01-18T17:25:39.140Z,1.90
2023-01-18T17:28:42.674Z,1.70
2023-01-18T17:31:52.180Z,1.88
2023-01-18T17:34:57.058Z,1.90
2023-01-18T17:38:06.183Z,2.00
2023-01-18T17:41:22.933Z,2.08
2023-01-18T17:44:36.747Z,2.25
2023-01-18T17:47:42.860Z,2.17
2023-01-18T17:50:46.379Z,2.10
2023-01-18T17:53:49.857Z,2.07
2023-01-18T17:56:53.365Z,2.45
2023-01-18T17:59:56.875Z,2.30
2023-01-18T18:03:01.266Z,2.30
2023-01-18T18:06:06.370Z,2.38
2023-01-18T18:09:09.774Z,1.90
2023-01-18T18:12:13.224Z,2.05
2023-01-18T18:18:37.828Z,2.50
2023-01-18T18:21:45.300Z,2.17
2023-01-18T18:24:49.696Z,2.13
2023-01-18T18:27:53.063Z,1.70
2023-01-18T18:30:58.086Z,1.85
2023-01-18T18:34:01.425Z,1.90
2023-01-18T18:37:06.099Z,2.50
2023-01-18T18:43:31.956Z,2.42
2023-01-18T18:49:56.787Z,2.47
2023-01-18T18:53:00.470Z,2.40
2023-01-18T18:56:06.945Z,1.90
2023-01-18T18:59:10.578Z,2.20
2023-01-18T19:02:16.224Z,2.20
2023-01-18T19:05:20.241Z,1.85
2023-01-18T19:08:23.918Z,2.40
2023-01-18T19:11:27.621Z,2.33
2023-01-18T19:14:31.197Z,2.17
2023-01-18T19:17:34.614Z,2.20
2023-01-18T19:20:39.268Z,1.70
2023-01-18T19:23:42.751Z,1.40
2023-01-18T19:26:46.037Z,1.37
2023-01-18T19:29:49.453Z,1.80
2023-01-18T19:32:53.352Z,1.10
2023-01-18T19:35:56.775Z,1.77
2023-01-18T19:39:03.501Z,1.25
2023-01-18T19:42:09.013Z,1.08
2023-01-18T19:45:23.121Z,1.45
2023-01-18T19:48:30.576Z,1.30
2023-01-18T19:51:37.399Z,1.60
2023-01-18T19:54:41.621Z,1.40
2023-01-18T19:57:45.058Z,1.40
2023-01-18T20:00:48.448Z,1.10
2023-01-18T20:03:52.225Z,1.10
2023-01-18T20:06:55.672Z,1.00
2023-01-18T20:09:59.227Z,0.80
2023-01-18T20:13:02.999Z,1.15
2023-01-18T20:16:07.032Z,1.35
2023-01-18T20:19:13.997Z,1.13
2023-01-18T20:22:17.541Z,1.90
2023-01-18T20:25:21.060Z,1.50
2023-01-18T20:28:24.467Z,1.50
2023-01-18T20:31:29.511Z,1.80
2023-01-18T20:34:33.843Z,1.35
2023-01-18T20:37:37.062Z,1.60
2023-01-18T20:40:40.889Z,1.63
2023-01-18T20:43:44.034Z,1.40
2023-01-18T20:46:47.574Z,1.20
2023-01-18T20:49:51.792Z,1.40
2023-01-18T20:52:55.283Z,1.70
2023-01-18T20:56:08.281Z,1.67
2023-01-18T20:59:15.199Z,1.38
2023-01-18T21:02:18.485Z,1.38
2023-01-18T21:05:22.339Z,1.60
2023-01-18T21:08:25.584Z,1.70
2023-01-18T21:11:29.175Z,1.50
2023-01-18T21:14:32.520Z,1.30
2023-01-18T21:17:36.404Z,1.50
2023-01-18T21:20:39.935Z,1.30
2023-01-18T21:23:43.227Z,1.30
2023-01-18T21:26:46.357Z,1.13
2023-01-18T21:29:49.777Z,1.67
2023-01-18T21:32:52.939Z,1.35
2023-01-18T21:35:56.115Z,1.35
2023-01-18T21:38:59.918Z,1.30
2023-01-18T21:42:21.797Z,1.47
2023-01-18T21:45:43.625Z,1.13
2023-01-18T21:48:46.798Z,1.83
2023-01-18T21:52:09.037Z,1.30
2023-01-18T21:55:12.196Z,1.60
2023-01-18T21:58:34.234Z,1.20
2023-01-18T22:01:41.262Z,1.42
2023-01-18T22:04:56.954Z,1.50
2023-01-18T22:08:00.522Z,1.38
2023-01-18T22:11:04.012Z,1.58
2023-01-18T22:14:09.072Z,1.47
2023-01-18T22:17:13.277Z,1.20
2023-01-18T22:20:17.178Z,1.50
2023-01-18T22:23:20.335Z,1.60
2023-01-18T22:26:26.114Z,1.40
2023-01-18T22:29:29.375Z,1.00
2023-01-18T22:32:33.669Z,1.00
2023-01-18T22:35:36.953Z,1.05
2023-01-18T22:38:40.770Z,0.88
2023-01-18T22:41:43.920Z,1.45
2023-01-18T22:44:47.142Z,0.80
2023-01-18T22:47:50.972Z,0.98
2023-01-18T22:50:55.488Z,0.65
2023-01-18T22:53:58.742Z,0.70
2023-01-18T22:57:02.069Z,0.70
2023-01-18T23:00:08.599Z,0.53
2023-01-18T23:03:12.267Z,0.70
2023-01-18T23:06:16.023Z,0.68
2023-01-18T23:09:19.560Z,0.60
2023-01-18T23:12:22.807Z,0.75
2023-01-18T23:15:44.743Z,0.80
2023-01-18T23:18:48.023Z,0.60
2023-01-18T23:21:52.191Z,0.73
2023-01-18T23:24:55.566Z,0.63
2023-01-18T23:28:03.290Z,0.60
2023-01-18T23:31:14.740Z,0.60
2023-01-18T23:34:18.037Z,1.00
2023-01-18T23:37:21.299Z,0.60
2023-01-18T23:40:43.229Z,0.52
2023-01-18T23:44:05.136Z,0.88
2023-01-18T23:47:26.881Z,0.63
2023-01-18T23:50:48.711Z,0.60
2023-01-18T23:54:10.398Z,0.60
2023-01-18T23:57:14.514Z,0.80
